Time;durP1;ratioP1;P1;durP2;ratioP2;P2;SDS_P1;SDS_P2;PMS_P1;PMS_P2;Temp;Humidity;BMP_temperature;BMP_pressure;BME280_temperature;BME280_humidity;BME280_pressure;Samples;Min_cycle;Max_cycle;Signal;HPM_P1;HPM_P2
2023/09/17 00:00:28;;;;;;;0.00;0.00;;;;;;;19.10;67.24;100107.56;4950560;28;20030;-73
2023/09/17 00:02:55;;;;;;;0.00;0.00;;;;;;;19.00;67.19;100104.00;4956079;28;20126;-74
2023/09/17 00:05:21;;;;;;;0.00;0.00;;;;;;;18.94;66.86;100110.03;4946890;28;20479;-73
2023/09/17 00:07:46;;;;;;;0.00;0.00;;;;;;;18.84;67.26;100083.50;4930947;29;20028;-75
2023/09/17 00:10:12;;;;;;;0.00;0.00;;;;;;;18.84;66.28;100102.91;4927547;29;20034;-74
2023/09/17 00:12:37;;;;;;;0.00;0.00;;;;;;;18.82;66.19;100099.63;4959052;28;20126;-74
2023/09/17 00:15:03;;;;;;;0.00;0.00;;;;;;;18.79;65.58;100101.13;4951323;28;20086;-74
2023/09/17 00:17:28;;;;;;;0.00;0.00;;;;;;;18.73;65.72;100098.84;4975077;28;20042;-73
2023/09/17 00:19:54;;;;;;;0.00;0.00;;;;;;;18.72;64.92;100094.44;4939690;28;20480;-73
2023/09/17 00:22:19;;;;;;;0.00;0.00;;;;;;;18.70;65.46;100082.88;4951131;28;20053;-73
2023/09/17 00:24:45;;;;;;;0.00;0.00;;;;;;;18.74;64.61;100100.47;4972558;28;20492;-75
2023/09/17 00:27:10;;;;;;;0.00;0.00;;;;;;;18.68;64.58;100080.44;4989527;28;20058;-73
2023/09/17 00:29:36;;;;;;;0.00;0.00;;;;;;;18.64;63.86;100091.34;4947657;28;20038;-73
2023/09/17 00:32:02;;;;;;;0.00;0.00;;;;;;;18.55;63.86;100082.25;4973773;28;20474;-74
2023/09/17 00:34:27;;;;;;;0.00;0.00;;;;;;;18.48;63.56;100081.94;4979675;28;20033;-73
2023/09/17 00:36:52;;;;;;;0.00;0.00;;;;;;;18.44;63.24;100080.97;4992252;28;20045;-71
2023/09/17 00:39:18;;;;;;;0.00;0.00;;;;;;;18.41;63.52;100081.63;4971626;28;20041;-74
2023/09/17 00:41:43;;;;;;;0.00;0.00;;;;;;;18.37;63.11;100069.56;4973204;28;20128;-73
2023/09/17 00:44:09;;;;;;;0.00;0.00;;;;;;;18.38;63.02;100087.81;4963325;28;20027;-74
2023/09/17 00:46:36;;;;;;;0.00;0.00;;;;;;;18.32;63.03;100084.38;4980386;28;20034;-75
2023/09/17 00:49:02;;;;;;;0.00;0.00;;;;;;;18.27;62.94;100077.06;4987191;28;20435;-74
2023/09/17 00:51:28;;;;;;;0.00;0.00;;;;;;;18.19;62.79;100071.53;4948725;28;20039;-73
2023/09/17 00:53:56;;;;;;;0.00;0.00;;;;;;;18.09;62.71;100064.38;4987949;28;20030;-75
2023/09/17 00:56:23;;;;;;;0.00;0.00;;;;;;;18.06;62.68;100071.38;4973339;28;20031;-74
2023/09/17 00:58:50;;;;;;;0.00;0.00;;;;;;;18.06;62.51;100079.69;4987292;28;20046;-74
2023/09/17 01:01:16;;;;;;;0.00;0.00;;;;;;;18.03;62.80;100076.75;4988474;28;20022;-73
2023/09/17 01:03:42;;;;;;;0.00;0.00;;;;;;;17.98;63.04;100071.38;4951515;28;20503;-74
2023/09/17 01:06:10;;;;;;;0.00;0.00;;;;;;;17.96;63.08;100066.19;4966927;28;20110;-73
2023/09/17 01:08:37;;;;;;;0.00;0.00;;;;;;;18.03;63.04;100074.78;4983825;28;20022;-73
2023/09/17 01:11:03;;;;;;;0.00;0.00;;;;;;;18.03;62.72;100082.28;4987757;28;20026;-74
2023/09/17 01:13:29;;;;;;;0.00;0.00;;;;;;;17.92;63.27;100082.59;4990382;28;20054;-74
2023/09/17 01:15:55;;;;;;;0.00;0.00;;;;;;;17.87;62.73;100081.91;4962033;28;20078;-73
2023/09/17 01:18:21;;;;;;;0.00;0.00;;;;;;;17.82;63.07;100071.81;4981347;28;20046;-73
2023/09/17 01:20:55;;;;;;;0.00;0.00;;;;;;;17.78;63.50;100081.88;4985804;28;20100;-73
2023/09/17 01:23:29;;;;;;;0.00;0.00;;;;;;;17.82;63.58;100077.34;4988055;28;20030;-73
2023/09/17 01:26:06;;;;;;;0.00;0.00;;;;;;;17.74;63.59;100070.69;4975415;28;20026;-74
2023/09/17 01:28:32;;;;;;;0.00;0.00;;;;;;;17.69;63.69;100072.78;4984652;28;20756;-74
2023/09/17 01:30:58;;;;;;;0.00;0.00;;;;;;;17.61;64.00;100069.66;4955545;28;20035;-75
2023/09/17 01:33:24;;;;;;;0.00;0.00;;;;;;;17.55;64.15;100073.72;4989572;28;20401;-73
2023/09/17 01:36:20;;;;;;;0.00;0.00;;;;;;;17.60;64.46;100076.31;4976801;28;20030;-73
2023/09/17 01:38:50;;;;;;;0.00;0.00;;;;;;;17.55;64.87;100076.50;4982236;28;20045;-75
2023/09/17 01:41:17;;;;;;;0.00;0.00;;;;;;;17.42;64.46;100074.66;4982267;28;20034;-72
2023/09/17 01:43:44;;;;;;;0.00;0.00;;;;;;;17.39;64.62;100081.66;4987563;28;20061;-73
2023/09/17 01:46:10;;;;;;;0.00;0.00;;;;;;;17.27;65.25;100073.97;4952405;28;20047;-73
2023/09/17 01:48:37;;;;;;;0.00;0.00;;;;;;;17.25;65.79;100076.22;4970911;28;20042;-74
2023/09/17 01:51:03;;;;;;;0.00;0.00;;;;;;;17.30;65.75;100082.75;4986696;28;20037;-73
2023/09/17 01:53:31;;;;;;;0.00;0.00;;;;;;;17.33;65.92;100082.09;4984841;28;20105;-74
2023/09/17 01:55:56;;;;;;;0.00;0.00;;;;;;;17.40;66.09;100087.97;4972268;28;20064;-75
2023/09/17 01:58:23;;;;;;;0.00;0.00;;;;;;;17.44;66.33;100086.22;4950007;28;20054;-75
2023/09/17 02:00:50;;;;;;;0.00;0.00;;;;;;;17.36;65.83;100076.78;4988673;28;20030;-74
2023/09/17 02:03:15;;;;;;;0.00;0.00;;;;;;;17.37;66.40;100072.03;4956094;28;20093;-74
2023/09/17 02:05:41;;;;;;;0.00;0.00;;;;;;;17.41;66.12;100073.03;4934498;28;20112;-75
2023/09/17 02:08:06;;;;;;;0.00;0.00;;;;;;;17.37;66.26;100075.59;4954405;28;20022;-73
2023/09/17 02:10:32;;;;;;;0.00;0.00;;;;;;;17.35;66.31;100080.66;4935496;28;20026;-73
2023/09/17 02:12:57;;;;;;;0.00;0.00;;;;;;;17.30;66.97;100068.94;4956479;28;20768;-74
2023/09/17 02:15:23;;;;;;;0.00;0.00;;;;;;;17.35;67.51;100063.28;4986651;28;20050;-74
2023/09/17 02:17:51;;;;;;;0.00;0.00;;;;;;;17.31;67.32;100051.22;4957767;28;20026;-74
2023/09/17 02:20:17;;;;;;;0.00;0.00;;;;;;;17.24;67.37;100057.19;4991495;28;20042;-74
2023/09/17 02:22:42;;;;;;;0.00;0.00;;;;;;;17.21;68.35;100053.13;4951577;28;20030;-74
2023/09/17 02:25:10;;;;;;;0.00;0.00;;;;;;;17.18;68.70;100048.25;4961172;28;20389;-73
2023/09/17 02:27:35;;;;;;;0.00;0.00;;;;;;;17.22;68.68;100040.94;4959991;28;20030;-74
2023/09/17 02:30:02;;;;;;;0.00;0.00;;;;;;;17.22;68.50;100049.25;4947857;28;20026;-75
2023/09/17 02:32:27;;;;;;;0.00;0.00;;;;;;;17.16;68.70;100045.00;4984630;28;20392;-74
2023/09/17 02:34:53;;;;;;;0.00;0.00;;;;;;;17.18;69.25;100053.78;4963047;28;20026;-74
2023/09/17 02:37:18;;;;;;;0.00;0.00;;;;;;;17.26;69.34;100055.75;4944169;28;20031;-73
2023/09/17 02:39:44;;;;;;;0.00;0.00;;;;;;;17.26;69.51;100053.00;4976955;28;20041;-75
2023/09/17 02:42:11;;;;;;;0.00;0.00;;;;;;;17.23;69.80;100066.63;4958746;28;20035;-75
2023/09/17 02:44:37;;;;;;;0.00;0.00;;;;;;;17.14;70.03;100063.03;4978075;28;20389;-73
2023/09/17 02:47:03;;;;;;;0.00;0.00;;;;;;;17.14;70.05;100065.78;4986558;28;20022;-74
2023/09/17 02:49:28;;;;;;;0.00;0.00;;;;;;;17.13;70.17;100061.38;4949540;28;20054;-75
2023/09/17 02:51:54;;;;;;;0.00;0.00;;;;;;;17.15;70.14;100064.66;4932175;28;20120;-73
2023/09/17 02:54:19;;;;;;;0.00;0.00;;;;;;;17.08;70.77;100054.06;4974844;28;20027;-75
2023/09/17 02:56:51;;;;;;;0.00;0.00;;;;;;;17.14;70.89;100052.78;5056614;28;20406;-74
2023/09/17 02:59:16;;;;;;;0.00;0.00;;;;;;;17.10;71.15;100043.53;5044623;28;20033;-75
2023/09/17 03:01:42;;;;;;;0.00;0.00;;;;;;;17.13;71.16;100045.63;5022308;28;20396;-74
2023/09/17 03:04:07;;;;;;;0.00;0.00;;;;;;;17.12;71.38;100038.47;5037949;28;20083;-73
2023/09/17 03:06:33;;;;;;;0.00;0.00;;;;;;;17.06;71.92;100025.94;5054403;28;20025;-73
2023/09/17 03:08:59;;;;;;;0.00;0.00;;;;;;;17.07;72.05;100013.78;5036009;28;20099;-73
2023/09/17 03:11:26;;;;;;;0.00;0.00;;;;;;;17.14;72.71;100019.63;5033744;28;20422;-73
2023/09/17 03:13:52;;;;;;;0.00;0.00;;;;;;;17.08;72.56;100004.34;5027449;28;20033;-73
2023/09/17 03:16:18;;;;;;;0.00;0.00;;;;;;;17.10;72.54;100010.38;5037744;28;20029;-76
2023/09/17 03:18:44;;;;;;;0.00;0.00;;;;;;;17.13;72.64;100006.13;5020170;28;20040;-73
2023/09/17 03:21:11;;;;;;;0.00;0.00;;;;;;;17.13;73.27;100011.66;5030370;28;20020;-72
2023/09/17 03:23:37;;;;;;;0.00;0.00;;;;;;;17.13;72.98;100000.59;5030474;28;20063;-74
2023/09/17 03:26:03;;;;;;;0.00;0.00;;;;;;;17.08;73.34;99999.63;5039076;28;20025;-73
2023/09/17 03:28:32;;;;;;;0.00;0.00;;;;;;;17.00;73.35;99992.13;5035234;28;20112;-72
2023/09/17 03:30:58;;;;;;;0.00;0.00;;;;;;;16.93;73.78;99987.06;5023379;28;20362;-74
2023/09/17 03:33:23;;;;;;;0.00;0.00;;;;;;;16.91;73.99;99983.00;5057982;28;20025;-73
2023/09/17 03:35:49;;;;;;;0.00;0.00;;;;;;;16.90;74.47;99973.88;5042633;28;20420;-73
2023/09/17 03:38:15;;;;;;;0.00;0.00;;;;;;;16.88;74.94;99967.88;5022161;28;20030;-74
2023/09/17 03:40:41;;;;;;;0.00;0.00;;;;;;;16.93;74.65;99967.72;5033685;28;20435;-74
2023/09/17 03:43:08;;;;;;;0.00;0.00;;;;;;;16.86;74.71;99948.00;5023445;28;20022;-72
2023/09/17 03:45:33;;;;;;;0.00;0.00;;;;;;;16.93;75.27;99945.63;5031984;28;20021;-73
2023/09/17 03:47:59;;;;;;;0.00;0.00;;;;;;;16.93;74.87;99950.34;5021435;28;20168;-73
2023/09/17 03:50:24;;;;;;;0.00;0.00;;;;;;;16.89;75.28;99952.13;5037054;28;20033;-73
2023/09/17 03:52:53;;;;;;;0.00;0.00;;;;;;;16.83;75.64;99937.63;5027514;28;20416;-75
2023/09/17 03:55:20;;;;;;;0.00;0.00;;;;;;;16.86;75.43;99945.25;5039739;28;20067;-73
2023/09/17 03:57:46;;;;;;;0.00;0.00;;;;;;;16.93;75.50;99956.69;5025811;28;20017;-73
2023/09/17 04:00:14;;;;;;;0.00;0.00;;;;;;;16.90;75.76;99964.81;5041516;28;20036;-73
2023/09/17 04:02:41;;;;;;;0.00;0.00;;;;;;;16.78;76.06;99961.78;5028244;28;20029;-74
2023/09/17 04:05:10;;;;;;;0.00;0.00;;;;;;;16.81;76.53;99973.03;5027890;28;20017;-72
2023/09/17 04:07:36;;;;;;;0.00;0.00;;;;;;;16.82;76.15;99974.66;5022146;28;20033;-73
2023/09/17 04:10:05;;;;;;;0.00;0.00;;;;;;;16.84;76.61;99963.28;5021323;28;20071;-73
2023/09/17 04:12:32;;;;;;;0.00;0.00;;;;;;;16.83;76.24;99976.28;5011443;28;20026;-72
2023/09/17 04:14:57;;;;;;;0.00;0.00;;;;;;;16.79;76.79;99980.00;5018537;28;20037;-72
2023/09/17 04:17:23;;;;;;;0.00;0.00;;;;;;;16.73;77.27;99971.03;5010145;28;20055;-73
2023/09/17 04:19:50;;;;;;;0.00;0.00;;;;;;;16.67;76.74;99975.88;5017480;28;20087;-73
2023/09/17 04:22:16;;;;;;;0.00;0.00;;;;;;;16.64;77.68;99968.22;5023923;28;20026;-72
2023/09/17 04:24:42;;;;;;;0.00;0.00;;;;;;;16.62;77.19;99969.69;5008188;28;20559;-74
2023/09/17 04:27:08;;;;;;;0.00;0.00;;;;;;;16.54;77.93;99963.81;5017117;28;20100;-73
2023/09/17 04:29:34;;;;;;;0.00;0.00;;;;;;;16.62;78.02;99961.41;5028876;28;20025;-73
2023/09/17 04:31:59;;;;;;;0.00;0.00;;;;;;;16.72;77.72;99961.16;5016857;28;20034;-72
2023/09/17 04:34:25;;;;;;;0.00;0.00;;;;;;;16.73;77.75;99954.47;4996340;28;20464;-73
2023/09/17 04:36:51;;;;;;;0.00;0.00;;;;;;;16.78;77.96;99959.03;5016988;28;20407;-73
2023/09/17 04:39:16;;;;;;;0.00;0.00;;;;;;;16.79;77.68;99955.94;5045967;28;20029;-74
2023/09/17 04:41:43;;;;;;;0.00;0.00;;;;;;;16.84;78.02;99949.50;5008485;28;20395;-73
2023/09/17 04:44:10;;;;;;;0.00;0.00;;;;;;;16.90;77.43;99949.03;5005988;28;20156;-73
2023/09/17 04:46:43;;;;;;;0.00;0.00;;;;;;;16.83;78.15;99943.13;5057515;28;20032;-75
2023/09/17 04:49:09;;;;;;;0.00;0.00;;;;;;;16.72;78.20;99939.06;5015285;28;20030;-74
2023/09/17 04:51:34;;;;;;;0.00;0.00;;;;;;;16.65;78.38;99939.50;5008642;28;20025;-74
2023/09/17 04:54:00;;;;;;;0.00;0.00;;;;;;;16.62;78.68;99939.31;5018212;28;20033;-74
2023/09/17 04:56:26;;;;;;;0.00;0.00;;;;;;;16.62;79.43;99925.50;5021148;28;20140;-75
2023/09/17 04:58:51;;;;;;;0.00;0.00;;;;;;;16.66;79.23;99926.50;5028182;28;20106;-72
2023/09/17 05:01:17;;;;;;;0.00;0.00;;;;;;;16.81;79.18;99939.91;5038986;28;20029;-70
2023/09/17 05:03:42;;;;;;;0.00;0.00;;;;;;;16.88;78.60;99922.88;5024600;28;20539;-70
2023/09/17 05:06:08;;;;;;;0.00;0.00;;;;;;;16.93;78.61;99931.81;4999096;28;20040;-72
2023/09/17 05:08:34;;;;;;;0.00;0.00;;;;;;;16.89;79.10;99936.38;5014879;28;20033;-72
2023/09/17 05:10:59;;;;;;;0.00;0.00;;;;;;;16.91;79.07;99925.81;5018646;28;20483;-71
2023/09/17 05:13:25;;;;;;;0.00;0.00;;;;;;;16.87;78.88;99915.72;5025084;28;20045;-71
2023/09/17 05:15:50;;;;;;;0.00;0.00;;;;;;;16.88;79.32;99912.66;5013377;28;20680;-70
2023/09/17 05:18:16;;;;;;;0.00;0.00;;;;;;;16.83;79.53;99910.00;4998910;28;20029;-70
2023/09/17 05:20:44;;;;;;;0.00;0.00;;;;;;;16.79;79.75;99917.28;5024924;28;20432;-72
2023/09/17 05:23:11;;;;;;;0.00;0.00;;;;;;;16.80;79.98;99921.69;5014700;28;20037;-71
2023/09/17 05:25:36;;;;;;;0.00;0.00;;;;;;;16.77;80.10;99922.34;5016718;28;20025;-71
2023/09/17 05:28:06;;;;;;;0.00;0.00;;;;;;;16.90;80.08;99932.47;5005965;28;20068;-72
2023/09/17 05:30:33;;;;;;;0.00;0.00;;;;;;;16.95;79.76;99922.41;5012187;28;20439;-71
2023/09/17 05:32:58;;;;;;;0.00;0.00;;;;;;;17.07;79.43;99915.13;5024484;28;20025;-73
2023/09/17 05:35:24;;;;;;;0.00;0.00;;;;;;;17.09;79.70;99921.13;5002497;28;20473;-71
2023/09/17 05:37:49;;;;;;;0.00;0.00;;;;;;;17.15;79.26;99921.00;5027855;28;20026;-71
2023/09/17 05:40:15;;;;;;;0.00;0.00;;;;;;;17.21;78.82;99926.03;5017497;28;20064;-73
2023/09/17 05:42:40;;;;;;;0.00;0.00;;;;;;;17.16;79.66;99928.16;5044968;28;20033;-71
2023/09/17 05:45:06;;;;;;;0.00;0.00;;;;;;;17.14;79.27;99922.94;5029079;28;20038;-73
2023/09/17 05:47:31;;;;;;;0.00;0.00;;;;;;;17.24;79.05;99916.28;5000225;28;20484;-71
2023/09/17 05:49:59;;;;;;;0.00;0.00;;;;;;;17.28;79.06;99907.03;5020859;28;20117;-72
2023/09/17 05:52:24;;;;;;;0.00;0.00;;;;;;;17.38;78.75;99914.19;4988944;28;20454;-72
2023/09/17 05:54:52;;;;;;;0.00;0.00;;;;;;;17.41;78.79;99896.16;5042652;28;20045;-72
2023/09/17 05:57:17;;;;;;;0.00;0.00;;;;;;;17.51;78.82;99890.31;5048668;28;20033;-72
2023/09/17 05:59:43;;;;;;;0.00;0.00;;;;;;;17.61;78.20;99889.97;5018485;28;20026;-72
2023/09/17 06:02:11;;;;;;;0.00;0.00;;;;;;;17.69;77.74;99890.28;5013667;28;20080;-73
2023/09/17 06:04:37;;;;;;;0.00;0.00;;;;;;;17.75;78.11;99895.31;4992896;28;20032;-72
2023/09/17 06:07:02;;;;;;;0.00;0.00;;;;;;;17.73;77.45;99886.53;5003130;28;20026;-71
2023/09/17 06:09:28;;;;;;;0.00;0.00;;;;;;;17.79;77.59;99889.94;4992421;28;20068;-72
2023/09/17 06:11:53;;;;;;;0.00;0.00;;;;;;;17.84;77.63;99881.47;5019612;28;20034;-72
2023/09/17 06:14:22;;;;;;;0.00;0.00;;;;;;;17.89;77.20;99886.84;5007944;28;20025;-73
2023/09/17 06:16:47;;;;;;;0.00;0.00;;;;;;;17.83;77.25;99879.88;5017731;28;20057;-72
2023/09/17 06:19:15;;;;;;;0.00;0.00;;;;;;;17.80;77.48;99886.84;5008317;28;20033;-73
2023/09/17 06:21:41;;;;;;;0.00;0.00;;;;;;;17.69;77.59;99891.09;4979208;28;21129;-72
2023/09/17 06:24:07;;;;;;;0.00;0.00;;;;;;;17.62;77.52;99897.13;5035098;28;20064;-72
2023/09/17 06:26:33;;;;;;;0.00;0.00;;;;;;;17.61;78.10;99889.97;5014566;28;20033;-74
2023/09/17 06:28:59;;;;;;;0.00;0.00;;;;;;;17.69;78.26;99890.28;5027948;28;20079;-71
2023/09/17 06:31:29;;;;;;;0.00;0.00;;;;;;;17.77;77.76;99892.22;5016775;28;20466;-73
2023/09/17 06:33:55;;;;;;;0.00;0.00;;;;;;;17.85;77.81;99902.47;5019656;28;20112;-71
2023/09/17 06:36:29;;;;;;;0.00;0.00;;;;;;;17.85;77.78;99904.41;5049739;28;20528;-74
2023/09/17 06:38:55;;;;;;;0.00;0.00;;;;;;;17.98;77.48;99925.59;5002313;28;20427;-71
2023/09/17 06:41:21;;;;;;;0.00;0.00;;;;;;;17.99;77.47;99918.09;5023358;28;20048;-73
2023/09/17 06:43:46;;;;;;;0.00;0.00;;;;;;;18.14;77.20;99923.09;4995616;28;20041;-72
2023/09/17 06:46:12;;;;;;;0.00;0.00;;;;;;;18.28;76.48;99922.88;5024756;28;20022;-72
2023/09/17 06:48:37;;;;;;;0.00;0.00;;;;;;;18.43;76.69;99922.38;5013458;28;20026;-72
2023/09/17 06:51:03;;;;;;;0.00;0.00;;;;;;;18.54;75.76;99908.97;5019584;28;20156;-72
2023/09/17 06:53:28;;;;;;;0.00;0.00;;;;;;;18.79;75.23;99909.16;4988101;28;20036;-72
2023/09/17 06:55:58;;;;;;;0.00;0.00;;;;;;;19.00;74.66;99906.50;4997816;28;21442;-71
2023/09/17 06:58:24;;;;;;;0.00;0.00;;;;;;;19.20;74.15;99913.19;5016116;28;20025;-73
2023/09/17 07:00:49;;;;;;;0.00;0.00;;;;;;;19.30;74.19;99901.72;5014642;28;20080;-72
2023/09/17 07:03:14;;;;;;;0.00;0.00;;;;;;;19.39;73.41;99909.13;5011514;28;20025;-73
2023/09/17 07:05:40;;;;;;;0.00;0.00;;;;;;;19.39;73.08;99886.97;5007360;28;20030;-72
2023/09/17 07:08:06;;;;;;;0.00;0.00;;;;;;;19.46;73.01;99907.44;4998357;28;20377;-72
2023/09/17 07:10:32;;;;;;;0.00;0.00;;;;;;;19.36;72.76;99894.00;5006110;28;20137;-72
2023/09/17 07:12:59;;;;;;;0.00;0.00;;;;;;;19.38;73.28;99896.41;4988091;28;21408;-72
2023/09/17 07:15:35;;;;;;;0.00;0.00;;;;;;;19.39;73.26;99889.75;4991277;28;20141;-72
2023/09/17 07:18:00;;;;;;;0.00;0.00;;;;;;;19.57;72.86;99891.22;5018534;28;20180;-72
2023/09/17 07:20:26;;;;;;;0.00;0.00;;;;;;;19.58;72.52;99878.16;5014645;28;20022;-72
2023/09/17 07:22:51;;;;;;;0.00;0.00;;;;;;;19.58;72.26;99867.91;5009080;28;20114;-71
2023/09/17 07:25:16;;;;;;;0.00;0.00;;;;;;;19.63;71.99;99864.09;5005981;28;20053;-71
2023/09/17 07:27:42;;;;;;;0.00;0.00;;;;;;;19.74;71.85;99864.47;5016293;28;20067;-72
2023/09/17 07:30:08;;;;;;;0.00;0.00;;;;;;;19.82;71.65;99858.88;5000397;28;20037;-72
2023/09/17 07:32:33;;;;;;;0.00;0.00;;;;;;;19.85;71.81;99855.41;5023922;28;20037;-71
2023/09/17 07:35:02;;;;;;;0.00;0.00;;;;;;;19.89;71.59;99863.88;5002968;28;20034;-72
2023/09/17 07:37:28;;;;;;;0.00;0.00;;;;;;;19.84;71.69;99864.91;5003117;28;20026;-72
2023/09/17 07:39:59;;;;;;;0.00;0.00;;;;;;;19.87;71.53;99858.66;5016654;28;20087;-71
2023/09/17 07:42:24;;;;;;;0.00;0.00;;;;;;;19.90;71.39;99873.78;5014493;28;20113;-73
2023/09/17 07:44:52;;;;;;;0.00;0.00;;;;;;;19.91;71.22;99860.75;5021406;28;20029;-74
2023/09/17 07:47:19;;;;;;;0.00;0.00;;;;;;;19.97;71.21;99862.13;4999950;28;20026;-72
2023/09/17 07:49:47;;;;;;;0.00;0.00;;;;;;;19.96;71.23;99853.00;5010551;28;20430;-73
2023/09/17 07:52:13;;;;;;;0.00;0.00;;;;;;;19.99;71.12;99855.09;5028733;28;20076;-72
2023/09/17 07:54:40;;;;;;;0.00;0.00;;;;;;;19.97;70.97;99845.50;5019939;28;20638;-71
2023/09/17 07:57:14;;;;;;;0.00;0.00;;;;;;;19.97;71.15;99843.53;5026849;28;20060;-72
2023/09/17 07:59:40;;;;;;;0.00;0.00;;;;;;;20.07;70.56;99827.59;5017233;28;20029;-72
2023/09/17 08:02:09;;;;;;;0.00;0.00;;;;;;;20.16;70.79;99825.53;5005354;28;20452;-73
2023/09/17 08:04:34;;;;;;;0.00;0.00;;;;;;;20.26;70.65;99819.50;5021548;28;20022;-74
2023/09/17 08:07:02;;;;;;;0.00;0.00;;;;;;;20.24;70.25;99813.50;5027787;28;20035;-72
2023/09/17 08:09:29;;;;;;;0.00;0.00;;;;;;;20.29;70.11;99802.16;5008720;28;20040;-73
2023/09/17 08:11:54;;;;;;;0.00;0.00;;;;;;;20.37;69.93;99815.13;5028631;28;20475;-73
2023/09/17 08:14:22;;;;;;;0.00;0.00;;;;;;;20.38;69.86;99811.19;5008884;28;20109;-72
2023/09/17 08:16:48;;;;;;;0.00;0.00;;;;;;;20.37;69.80;99815.13;5027075;28;20116;-72
2023/09/17 08:19:14;;;;;;;0.00;0.00;;;;;;;20.42;69.48;99824.38;5028713;28;20051;-71
2023/09/17 08:21:39;;;;;;;0.00;0.00;;;;;;;20.45;69.22;99820.91;5004864;28;20405;-73
2023/09/17 08:24:14;;;;;;;0.00;0.00;;;;;;;20.50;69.46;99829.00;4991228;28;20065;-72
2023/09/17 08:26:40;;;;;;;0.00;0.00;;;;;;;20.49;69.26;99839.31;5020642;28;20040;-73
2023/09/17 08:29:05;;;;;;;0.00;0.00;;;;;;;20.40;69.82;99833.06;5012255;28;20038;-73
2023/09/17 08:31:32;;;;;;;0.00;0.00;;;;;;;20.20;70.20;99832.00;5007935;28;20034;-74
2023/09/17 08:33:58;;;;;;;0.00;0.00;;;;;;;20.02;70.53;99842.50;5026642;28;20122;-74
2023/09/17 08:36:25;;;;;;;0.00;0.00;;;;;;;19.94;71.04;99840.63;5054368;28;20092;-73
2023/09/17 08:38:52;;;;;;;0.00;0.00;;;;;;;19.77;71.19;99830.50;5025420;28;20037;-74
2023/09/17 08:41:22;;;;;;;0.00;0.00;;;;;;;19.76;71.66;99828.91;5010776;28;20091;-75
2023/09/17 08:43:58;;;;;;;0.00;0.00;;;;;;;19.71;72.04;99830.72;5017180;28;20745;-74
2023/09/17 08:46:23;;;;;;;0.00;0.00;;;;;;;19.78;72.13;99837.66;5022504;28;20456;-75
2023/09/17 08:48:49;;;;;;;0.00;0.00;;;;;;;19.81;72.02;99834.25;5046966;28;20036;-74
2023/09/17 08:51:18;;;;;;;0.00;0.00;;;;;;;19.85;72.08;99824.09;5027759;28;20032;-74
2023/09/17 08:54:21;;;;;;;0.00;0.00;;;;;;;19.96;71.88;99822.50;5007048;28;20039;-74
2023/09/17 08:56:48;;;;;;;0.00;0.00;;;;;;;19.94;71.81;99813.69;5018104;28;20049;-73
2023/09/17 08:59:20;;;;;;;0.00;0.00;;;;;;;19.97;71.89;99814.97;5011764;28;20076;-74
2023/09/17 09:01:48;;;;;;;0.00;0.00;;;;;;;19.96;72.08;99808.63;5027535;28;20427;-74
2023/09/17 09:04:15;;;;;;;0.00;0.00;;;;;;;19.95;71.94;99803.41;5018187;28;20057;-75
2023/09/17 09:06:43;;;;;;;0.00;0.00;;;;;;;20.06;71.69;99821.22;5025715;28;20105;-75
2023/09/17 09:09:09;;;;;;;0.00;0.00;;;;;;;20.10;71.79;99827.69;5010109;28;20472;-74
2023/09/17 09:11:34;;;;;;;0.00;0.00;;;;;;;20.08;71.73;99829.19;5017045;28;20029;-74
2023/09/17 09:14:03;;;;;;;0.00;0.00;;;;;;;20.09;71.65;99820.53;5006250;28;20124;-74
2023/09/17 09:16:32;;;;;;;0.00;0.00;;;;;;;20.11;71.53;99820.22;5018600;28;20022;-74
2023/09/17 09:19:01;;;;;;;0.00;0.00;;;;;;;19.99;71.68;99810.69;5026375;28;20056;-74
2023/09/17 09:21:30;;;;;;;0.00;0.00;;;;;;;20.04;71.89;99829.88;5037336;28;20067;-73
2023/09/17 09:23:59;;;;;;;0.00;0.00;;;;;;;19.95;72.08;99826.41;5019779;28;20384;-75
2023/09/17 09:26:38;;;;;;;0.00;0.00;;;;;;;19.80;72.05;99805.69;5023840;28;20018;-74
2023/09/17 09:29:06;;;;;;;0.00;0.00;;;;;;;19.90;72.25;99807.19;5011598;28;20468;-75
2023/09/17 09:31:34;;;;;;;0.00;0.00;;;;;;;19.85;72.31;99799.91;5034065;28;20035;-75
2023/09/17 09:34:01;;;;;;;0.00;0.00;;;;;;;19.94;72.34;99808.13;5029869;28;20034;-76
2023/09/17 09:36:28;;;;;;;0.00;0.00;;;;;;;19.74;72.30;99775.72;5059789;28;20049;-75
2023/09/17 09:39:03;;;;;;;0.00;0.00;;;;;;;19.78;72.18;99793.28;5058581;28;20036;-75
2023/09/17 09:41:29;;;;;;;0.00;0.00;;;;;;;19.68;72.46;99784.25;5009876;28;20049;-74
2023/09/17 09:43:56;;;;;;;0.00;0.00;;;;;;;19.80;72.95;99813.19;5004268;28;20145;-74
2023/09/17 09:46:26;;;;;;;0.00;0.00;;;;;;;19.61;72.84;99780.41;5021112;28;20021;-75
2023/09/17 09:48:52;;;;;;;0.00;0.00;;;;;;;19.58;73.21;99779.16;5025080;28;20029;-74
2023/09/17 09:51:18;;;;;;;0.00;0.00;;;;;;;19.53;73.46;99771.84;5020054;28;20108;-74
2023/09/17 09:53:48;;;;;;;0.00;0.00;;;;;;;19.52;nan;99769.41;5048943;28;20087;-75
2023/09/17 09:56:14;;;;;;;0.00;0.00;;;;;;;19.46;74.00;99762.47;5024529;28;20201;-75
2023/09/17 09:58:40;;;;;;;0.00;0.00;;;;;;;19.47;74.54;99767.66;5031320;28;20526;-74
2023/09/17 10:01:06;;;;;;;0.00;0.00;;;;;;;19.48;74.09;99774.84;5027448;28;20033;-74
2023/09/17 10:03:32;;;;;;;0.00;0.00;;;;;;;19.40;74.08;99758.31;5031494;28;20037;-75
2023/09/17 10:06:04;;;;;;;0.00;0.00;;;;;;;19.56;74.33;99786.19;5020765;28;20026;-74
2023/09/17 10:08:30;;;;;;;0.00;0.00;;;;;;;19.53;74.61;99782.13;5024999;28;20026;-77
2023/09/17 10:10:55;;;;;;;0.00;0.00;;;;;;;19.56;74.85;99781.44;5021638;28;20076;-76
2023/09/17 10:13:21;;;;;;;0.00;0.00;;;;;;;19.58;74.81;99779.16;4990770;28;20088;-76
2023/09/17 10:15:46;;;;;;;0.00;0.00;;;;;;;19.56;74.79;99767.56;4990407;28;20030;-74
2023/09/17 10:18:14;;;;;;;0.00;0.00;;;;;;;19.56;75.10;99770.34;4984105;28;20053;-73
2023/09/17 10:20:43;;;;;;;0.00;0.00;;;;;;;19.58;75.58;99765.28;5003502;28;20034;-73
2023/09/17 10:23:10;;;;;;;0.00;0.00;;;;;;;19.50;75.45;99771.72;5003624;28;20025;-73
2023/09/17 10:25:39;;;;;;;0.00;0.00;;;;;;;19.44;75.67;99767.56;5025180;28;20021;-73
2023/09/17 10:28:05;;;;;;;0.00;0.00;;;;;;;19.41;75.95;99771.00;5022478;28;20056;-74
2023/09/17 10:30:32;;;;;;;0.00;0.00;;;;;;;19.40;76.11;99783.25;5024864;28;20026;-74
2023/09/17 10:33:00;;;;;;;0.00;0.00;;;;;;;19.33;76.12;99773.53;5014150;28;20030;-74
2023/09/17 10:35:28;;;;;;;0.00;0.00;;;;;;;19.33;76.31;99768.00;5009659;28;20025;-73
2023/09/17 10:37:54;;;;;;;0.00;0.00;;;;;;;19.36;76.41;99783.94;5015137;28;20806;-74
2023/09/17 10:40:20;;;;;;;0.00;0.00;;;;;;;19.33;76.77;99781.84;5001558;28;20037;-73
2023/09/17 10:42:46;;;;;;;0.00;0.00;;;;;;;19.35;76.72;99792.59;5007684;28;20034;-74
2023/09/17 10:45:22;;;;;;;;;;;;;;;;;;;;;
2023/09/17 10:48:02;;;;;;;;;;;;;;;;;;;;;
2023/09/17 10:50:36;;;;;;;0.00;0.00;;;;;;;18.89;78.42;99795.25;5006835;28;20027;-73
2023/09/17 10:53:08;;;;;;;0.00;0.00;;;;;;;18.90;78.81;99804.38;5019796;28;20487;-74
2023/09/17 10:55:56;;;;;;;;;;;;;;;;;;;;;
2023/09/17 10:59:18;;;;;;;0.00;0.00;;;;;;;18.53;79.97;99768.09;5014594;28;20475;-74
2023/09/17 11:05:22;;;;;;;;;;;;;;;;;;;;;
2023/09/17 11:11:40;;;;;;;0.00;0.00;;;;;;;18.39;81.43;99768.38;4990805;28;20217;-71
2023/09/17 11:14:28;;;;;;;0.00;0.00;;;;;;;18.65;82.03;99791.16;5017551;28;20025;-75
2023/09/17 11:17:19;;;;;;;0.00;0.00;;;;;;;18.69;81.57;99766.38;4983165;28;20037;-76
2023/09/17 11:19:55;;;;;;;;;;;;;;;;;;;;;
2023/09/17 11:22:40;;;;;;;0.00;0.00;;;;;;;18.58;81.55;99727.19;5018178;28;20034;-73
2023/09/17 11:25:48;;;;;;;0.00;0.00;;;;;;;18.64;81.44;99725.03;5023102;28;20029;-74
2023/09/17 11:28:16;;;;;;;0.00;0.00;;;;;;;18.78;81.59;99728.34;5049110;28;20045;-75
2023/09/17 11:31:11;;;;;;;0.00;0.00;;;;;;;19.11;81.18;99760.03;5007480;28;20116;-76
2023/09/17 11:33:42;;;;;;;0.00;0.00;;;;;;;18.94;81.04;99711.13;5018913;28;20018;-75
2023/09/17 11:36:15;;;;;;;0.00;0.00;;;;;;;18.93;80.58;99710.31;5018103;28;20057;-74
2023/09/17 11:38:48;;;;;;;0.00;0.00;;;;;;;19.12;80.99;99750.56;5021024;28;20029;-75
2023/09/17 11:41:15;;;;;;;0.00;0.00;;;;;;;19.28;81.14;99765.41;5020394;28;20336;-74
2023/09/17 11:44:03;;;;;;;0.00;0.00;;;;;;;19.43;80.72;99766.72;5019888;28;20527;-75
2023/09/17 11:46:30;;;;;;;0.00;0.00;;;;;;;19.38;80.38;99742.00;5012514;28;20018;-74